Time;durP1;ratioP1;P1;durP2;ratioP2;P2;SDS_P1;SDS_P2;PMS_P1;PMS_P2;Temp;Humidity;BMP_temperature;BMP_pressure;BME280_temperature;BME280_humidity;BME280_pressure;Samples;Min_cycle;Max_cycle;Signal;HPM_P1;HPM_P2
2023/12/03 00:01:24;;;;;;;;;;;16.60;55.20;;;;;;10305666;28;93297;-66
2023/12/03 00:06:26;;;;;;;;;;;16.50;55.00;;;;;;10320745;28;93437;-66
2023/12/03 00:11:28;;;;;;;;;;;16.50;54.80;;;;;;10304443;28;96847;-65
2023/12/03 00:16:30;;;;;;;;;;;16.50;54.80;;;;;;10321263;28;95203;-65
2023/12/03 00:21:31;;;;;;;;;;;16.50;55.20;;;;;;10316818;28;96383;-65
2023/12/03 00:26:33;;;;;;;;;;;16.50;55.50;;;;;;10318674;28;94505;-65
2023/12/03 00:31:35;;;;;;;;;;;16.40;55.20;;;;;;10303885;28;95185;-65
2023/12/03 00:36:37;;;;;;;;;;;16.40;55.00;;;;;;10313641;28;94341;-66
2023/12/03 00:41:39;;;;;;;;;;;16.40;54.70;;;;;;10322302;28;93717;-66
2023/12/03 00:46:41;;;;;;;;;;;16.40;54.50;;;;;;10316981;28;93937;-65
2023/12/03 00:51:43;;;;;;;;;;;16.40;54.30;;;;;;10291693;28;93525;-66
2023/12/03 00:56:45;;;;;;;;;;;16.30;54.00;;;;;;10317567;28;93552;-67
2023/12/03 01:01:47;;;;;;;;;;;16.40;54.00;;;;;;10316596;28;96759;-66
2023/12/03 01:06:49;;;;;;;;;;;16.30;53.80;;;;;;10312959;28;94201;-66
2023/12/03 01:11:53;;;;;;;;;;;16.30;53.90;;;;;;10316180;28;93572;-67
2023/12/03 01:16:55;;;;;;;;;;;16.30;54.50;;;;;;10326941;28;93529;-65
2023/12/03 01:21:57;;;;;;;;;;;16.20;54.70;;;;;;10325025;28;93770;-65
2023/12/03 01:26:58;;;;;;;;;;;16.20;54.60;;;;;;10310628;28;97091;-66
2023/12/03 01:32:00;;;;;;;;;;;16.20;54.40;;;;;;10314577;28;93797;-65
2023/12/03 01:37:02;;;;;;;;;;;16.20;54.20;;;;;;10318877;28;93679;-66
2023/12/03 01:42:04;;;;;;;;;;;16.10;53.90;;;;;;10321925;28;94427;-66
2023/12/03 01:47:06;;;;;;;;;;;16.10;54.70;;;;;;10291705;28;94406;-66
2023/12/03 01:52:08;;;;;;;;;;;16.10;53.60;;;;;;10305340;28;95858;-65
2023/12/03 01:57:10;;;;;;;;;;;16.10;53.50;;;;;;10317164;28;94060;-65
2023/12/03 02:07:27;;;;;;;;;;;16.10;53.70;;;;;;10209173;28;94306;-56
2023/12/03 02:12:28;;;;;;;;;;;16.00;54.10;;;;;;10234504;28;94727;-56
2023/12/03 02:17:30;;;;;;;;;;;16.00;54.30;;;;;;10221602;28;94942;-56
2023/12/03 02:22:32;;;;;;;;;;;16.00;54.20;;;;;;10229155;28;94540;-55
2023/12/03 02:27:34;;;;;;;;;;;16.00;53.80;;;;;;10223665;28;93713;-56
2023/12/03 02:32:36;;;;;;;;;;;16.00;53.50;;;;;;10219962;28;93665;-56
2023/12/03 02:37:38;;;;;;;;;;;16.10;53.30;;;;;;10235156;28;94678;-56
2023/12/03 02:42:39;;;;;;;;;;;16.10;53.10;;;;;;10236931;28;96876;-55
2023/12/03 02:47:41;;;;;;;;;;;16.10;53.00;;;;;;10235599;28;93519;-56
2023/12/03 02:52:43;;;;;;;;;;;16.00;52.80;;;;;;10240512;28;94549;-55
2023/12/03 02:57:45;;;;;;;;;;;16.00;52.70;;;;;;10246448;28;94840;-56
2023/12/03 03:02:46;;;;;;;;;;;16.00;53.00;;;;;;10239130;28;92621;-55
2023/12/03 03:07:48;;;;;;;;;;;15.90;53.50;;;;;;10242255;28;93406;-56
2023/12/03 03:12:50;;;;;;;;;;;15.80;53.50;;;;;;10236328;28;94547;-56
2023/12/03 03:17:52;;;;;;;;;;;15.80;53.80;;;;;;10218705;28;93697;-56
2023/12/03 03:22:54;;;;;;;;;;;15.80;54.00;;;;;;10249381;28;93138;-55
2023/12/03 03:27:55;;;;;;;;;;;15.90;53.90;;;;;;10231918;28;93403;-56
2023/12/03 03:32:57;;;;;;;;;;;15.90;53.90;;;;;;10233087;28;98114;-57
2023/12/03 03:37:59;;;;;;;;;;;15.90;54.00;;;;;;10241167;28;93302;-56
2023/12/03 03:43:01;;;;;;;;;;;15.90;54.00;;;;;;10243717;28;93392;-55
2023/12/03 03:48:03;;;;;;;;;;;15.80;54.00;;;;;;10250558;28;95593;-55
2023/12/03 03:53:05;;;;;;;;;;;15.80;54.00;;;;;;10257489;28;93473;-56
2023/12/03 03:58:07;;;;;;;;;;;15.80;54.20;;;;;;10243842;28;94939;-56
2023/12/03 04:03:08;;;;;;;;;;;15.90;54.10;;;;;;10238187;28;94114;-55
2023/12/03 04:08:10;;;;;;;;;;;15.90;54.20;;;;;;10239747;28;93727;-58
2023/12/03 04:13:12;;;;;;;;;;;15.90;53.90;;;;;;10242709;28;93471;-55
2023/12/03 04:18:14;;;;;;;;;;;15.90;54.00;;;;;;10239062;28;95206;-55
2023/12/03 04:23:16;;;;;;;;;;;15.90;53.90;;;;;;10239289;28;98161;-55
2023/12/03 04:28:18;;;;;;;;;;;15.90;54.00;;;;;;10238046;28;93929;-55
2023/12/03 04:33:19;;;;;;;;;;;15.80;54.10;;;;;;10245250;28;93918;-56
2023/12/03 04:38:21;;;;;;;;;;;15.90;54.20;;;;;;10233642;28;93632;-55
2023/12/03 04:43:24;;;;;;;;;;;15.90;54.10;;;;;;10235950;28;96925;-56
2023/12/03 04:48:26;;;;;;;;;;;15.90;54.00;;;;;;10238620;28;94027;-55
2023/12/03 04:53:27;;;;;;;;;;;15.90;53.80;;;;;;10233178;28;93488;-55
2023/12/03 04:58:29;;;;;;;;;;;15.90;53.80;;;;;;10233639;28;92679;-56
2023/12/03 05:03:31;;;;;;;;;;;15.90;53.90;;;;;;10232714;28;94016;-56
2023/12/03 05:08:33;;;;;;;;;;;15.80;53.90;;;;;;10225548;28;93872;-56
2023/12/03 05:13:35;;;;;;;;;;;15.80;53.90;;;;;;10227352;28;97438;-55
2023/12/03 05:18:37;;;;;;;;;;;15.80;54.10;;;;;;10224374;28;93569;-55
2023/12/03 05:23:39;;;;;;;;;;;15.70;54.10;;;;;;10237864;28;94789;-55
2023/12/03 05:28:41;;;;;;;;;;;15.70;54.10;;;;;;10239370;28;94364;-55
2023/12/03 05:33:43;;;;;;;;;;;15.70;54.10;;;;;;10233795;28;93784;-55
2023/12/03 05:38:45;;;;;;;;;;;15.60;54.10;;;;;;10227045;28;94080;-55
2023/12/03 05:43:47;;;;;;;;;;;15.60;54.30;;;;;;10235794;28;94025;-55
2023/12/03 05:48:49;;;;;;;;;;;15.70;54.40;;;;;;10222436;28;93617;-54
2023/12/03 05:53:51;;;;;;;;;;;15.90;54.20;;;;;;10234627;28;94261;-55
2023/12/03 05:58:53;;;;;;;;;;;16.30;53.80;;;;;;10234714;28;94740;-53
2023/12/03 06:03:55;;;;;;;;;;;16.50;53.30;;;;;;10223835;28;97225;-54
2023/12/03 06:08:57;;;;;;;;;;;16.80;52.70;;;;;;10248661;28;93513;-55
2023/12/03 06:13:59;;;;;;;;;;;17.00;52.20;;;;;;10230075;28;95340;-54
2023/12/03 06:19:00;;;;;;;;;;;17.20;51.80;;;;;;10245692;28;93784;-55
2023/12/03 06:24:02;;;;;;;;;;;17.40;51.50;;;;;;10232860;28;94880;-55
2023/12/03 06:29:04;;;;;;;;;;;17.60;51.20;;;;;;10233187;28;93479;-56
2023/12/03 06:34:06;;;;;;;;;;;17.60;50.80;;;;;;10229941;28;93778;-55
2023/12/03 06:39:09;;;;;;;;;;;17.60;50.60;;;;;;10234028;28;93146;-56
2023/12/03 06:44:10;;;;;;;;;;;17.60;50.80;;;;;;10237081;28;93652;-55
2023/12/03 06:49:12;;;;;;;;;;;17.50;50.90;;;;;;10229396;28;93763;-56
2023/12/03 06:54:14;;;;;;;;;;;17.30;51.00;;;;;;10228057;28;96297;-56
2023/12/03 06:59:16;;;;;;;;;;;17.30;51.30;;;;;;10232772;28;93432;-56
2023/12/03 07:04:17;;;;;;;;;;;17.10;51.40;;;;;;10234253;28;93509;-56
2023/12/03 07:09:21;;;;;;;;;;;17.00;51.40;;;;;;10251692;28;93456;-56
2023/12/03 07:14:40;;;;;;;;;;;16.90;51.80;;;;;;10234154;28;93899;-56
2023/12/03 07:19:43;;;;;;;;;;;17.00;52.10;;;;;;10231200;28;94786;-56
2023/12/03 07:24:44;;;;;;;;;;;17.00;52.10;;;;;;10229193;28;94019;-56
2023/12/03 07:29:46;;;;;;;;;;;17.20;52.10;;;;;;10228399;28;92453;-55
2023/12/03 07:34:48;;;;;;;;;;;17.30;51.90;;;;;;10234351;28;94509;-55
2023/12/03 07:39:50;;;;;;;;;;;17.50;51.80;;;;;;10229470;28;94128;-55
2023/12/03 07:44:52;;;;;;;;;;;17.60;51.60;;;;;;10236793;28;95830;-55
2023/12/03 07:49:54;;;;;;;;;;;17.60;51.60;;;;;;10236499;28;94757;-55
2023/12/03 07:54:55;;;;;;;;;;;17.50;52.30;;;;;;10232635;28;93678;-54
2023/12/03 07:59:58;;;;;;;;;;;17.50;52.60;;;;;;10239008;28;94061;-54
2023/12/03 08:04:59;;;;;;;;;;;17.40;52.70;;;;;;10232158;28;94338;-47
2023/12/03 08:10:02;;;;;;;;;;;17.30;52.90;;;;;;10236733;28;94235;-46
2023/12/03 08:15:04;;;;;;;;;;;17.30;54.10;;;;;;10236270;28;93509;-47
2023/12/03 08:20:06;;;;;;;;;;;17.20;54.80;;;;;;10239579;28;93314;-46
2023/12/03 08:25:08;;;;;;;;;;;17.30;55.70;;;;;;10232972;28;94305;-46
2023/12/03 08:30:13;;;;;;;;;;;17.30;55.90;;;;;;10227755;28;94439;-49
2023/12/03 08:35:15;;;;;;;;;;;17.40;55.70;;;;;;10230544;28;96348;-49
2023/12/03 08:40:17;;;;;;;;;;;17.50;55.50;;;;;;10237226;28;95074;-50
2023/12/03 08:45:18;;;;;;;;;;;17.50;55.40;;;;;;10225369;28;93726;-46
2023/12/03 08:50:20;;;;;;;;;;;17.40;55.30;;;;;;10231629;28;94208;-46
2023/12/03 08:55:22;;;;;;;;;;;17.40;55.20;;;;;;10235367;28;93355;-47
2023/12/03 09:00:24;;;;;;;;;;;17.40;55.00;;;;;;10235955;28;93521;-46
2023/12/03 09:05:26;;;;;;;;;;;17.30;54.90;;;;;;10225588;28;93632;-48
2023/12/03 09:10:28;;;;;;;;;;;17.30;54.90;;;;;;10236414;28;92947;-49
2023/12/03 09:15:29;;;;;;;;;;;17.20;55.00;;;;;;10231479;28;93541;-49
2023/12/03 09:20:31;;;;;;;;;;;17.20;54.90;;;;;;10219313;28;94301;-47
2023/12/03 09:25:33;;;;;;;;;;;17.20;54.90;;;;;;10238216;28;95935;-47
2023/12/03 09:30:35;;;;;;;;;;;17.20;54.80;;;;;;10241159;28;92921;-49
2023/12/03 09:35:37;;;;;;;;;;;17.10;54.80;;;;;;10234528;28;94124;-49
2023/12/03 09:40:39;;;;;;;;;;;17.10;54.90;;;;;;10236310;28;93526;-46
2023/12/03 09:45:41;;;;;;;;;;;17.20;54.90;;;;;;10230407;28;93527;-48
2023/12/03 09:50:43;;;;;;;;;;;17.30;54.60;;;;;;10246839;28;94510;-46
2023/12/03 09:55:45;;;;;;;;;;;17.40;54.30;;;;;;10233257;28;94447;-48
2023/12/03 10:00:48;;;;;;;;;;;17.40;54.20;;;;;;10233029;28;92743;-47
2023/12/03 10:05:49;;;;;;;;;;;17.40;54.10;;;;;;10230120;28;94637;-47
2023/12/03 10:11:02;;;;;;;;;;;17.30;54.20;;;;;;10216652;28;94265;-50
2023/12/03 10:16:07;;;;;;;;;;;17.40;54.10;;;;;;10235695;28;96608;-48
2023/12/03 10:21:09;;;;;;;;;;;17.30;54.00;;;;;;10242062;28;93457;-46
2023/12/03 10:26:12;;;;;;;;;;;17.30;54.00;;;;;;10229219;28;92921;-46
2023/12/03 10:31:15;;;;;;;;;;;17.30;54.00;;;;;;10210703;28;94316;-49
2023/12/03 10:36:17;;;;;;;;;;;17.20;54.20;;;;;;10230402;28;94471;-51
2023/12/03 10:41:20;;;;;;;;;;;17.30;54.20;;;;;;10235635;28;93939;-51
2023/12/03 10:46:23;;;;;;;;;;;17.20;54.20;;;;;;10230032;28;93893;-50
2023/12/03 10:51:25;;;;;;;;;;;17.30;54.20;;;;;;10227080;28;93911;-49
2023/12/03 10:56:28;;;;;;;;;;;17.50;54.00;;;;;;10227652;28;93398;-50
2023/12/03 11:01:30;;;;;;;;;;;17.80;53.70;;;;;;10223701;28;94647;-48
2023/12/03 11:06:34;;;;;;;;;;;18.00;53.40;;;;;;10218470;28;97313;-50
2023/12/03 11:11:37;;;;;;;;;;;18.10;53.10;;;;;;10237537;28;93565;-47
2023/12/03 11:16:42;;;;;;;;;;;18.20;52.80;;;;;;10236261;28;94533;-48
2023/12/03 11:21:43;;;;;;;;;;;18.30;52.80;;;;;;10236807;28;93482;-47
2023/12/03 11:26:45;;;;;;;;;;;18.40;52.60;;;;;;10238583;28;93520;-49
2023/12/03 11:31:47;;;;;;;;;;;18.40;52.30;;;;;;10225683;28;95086;-51
2023/12/03 11:36:49;;;;;;;;;;;18.30;52.40;;;;;;10242585;28;94061;-52
2023/12/03 11:41:59;;;;;;;;;;;18.20;53.80;;;;;;10236479;28;93151;-49
2023/12/03 11:47:02;;;;;;;;;;;18.30;58.00;;;;;;10225339;28;94156;-51
2023/12/03 11:52:05;;;;;;;;;;;18.70;57.30;;;;;;10239646;28;93939;-48
2023/12/03 11:57:15;;;;;;;;;;;18.90;61.90;;;;;;10226454;28;96956;-50
2023/12/03 12:02:17;;;;;;;;;;;19.10;60.10;;;;;;10227643;28;94467;-49
2023/12/03 12:07:19;;;;;;;;;;;19.00;59.10;;;;;;10233533;28;94863;-46
2023/12/03 12:12:21;;;;;;;;;;;18.90;58.90;;;;;;10228502;28;94392;-48
2023/12/03 12:17:25;;;;;;;;;;;18.80;59.20;;;;;;10248799;28;94509;-51
2023/12/03 12:22:27;;;;;;;;;;;18.60;58.90;;;;;;10232719;28;94226;-51
2023/12/03 12:27:29;;;;;;;;;;;18.50;59.00;;;;;;10230203;28;94346;-52
2023/12/03 12:32:31;;;;;;;;;;;18.30;59.20;;;;;;10227231;28;92987;-52
2023/12/03 12:37:34;;;;;;;;;;;18.30;60.80;;;;;;10238375;28;93704;-50
2023/12/03 12:42:42;;;;;;;;;;;18.30;60.90;;;;;;10231954;28;93624;-51
2023/12/03 12:47:44;;;;;;;;;;;18.30;61.40;;;;;;10228019;28;95995;-50
2023/12/03 12:52:55;;;;;;;;;;;18.20;61.50;;;;;;10233975;28;94532;-48
2023/12/03 12:57:57;;;;;;;;;;;18.20;61.70;;;;;;10229192;28;93544;-47
2023/12/03 13:02:59;;;;;;;;;;;18.20;62.20;;;;;;10231196;28;95682;-47
2023/12/03 13:08:00;;;;;;;;;;;18.30;62.90;;;;;;10235770;28;94358;-46
2023/12/03 13:13:02;;;;;;;;;;;18.30;62.90;;;;;;10225071;28;94382;-50
2023/12/03 13:18:05;;;;;;;;;;;18.30;62.30;;;;;;10227621;28;94793;-48
2023/12/03 13:23:20;;;;;;;;;;;18.30;61.40;;;;;;10234669;28;93534;-47
2023/12/03 13:28:22;;;;;;;;;;;18.20;60.80;;;;;;10227942;28;93413;-50
2023/12/03 13:33:26;;;;;;;;;;;18.20;60.70;;;;;;10226453;28;94273;-48
2023/12/03 13:38:28;;;;;;;;;;;18.20;60.40;;;;;;10212155;28;96642;-48
2023/12/03 13:43:30;;;;;;;;;;;18.10;60.10;;;;;;10217671;28;93745;-48
2023/12/03 13:48:32;;;;;;;;;;;18.00;60.00;;;;;;10220413;28;95723;-47
2023/12/03 13:53:34;;;;;;;;;;;18.00;60.00;;;;;;10218433;28;94688;-50
2023/12/03 13:58:36;;;;;;;;;;;18.00;60.00;;;;;;10230578;28;94290;-46
2023/12/03 14:03:38;;;;;;;;;;;18.00;59.90;;;;;;10216281;28;93410;-48
2023/12/03 14:08:44;;;;;;;;;;;18.10;59.80;;;;;;10223460;28;94184;-47
2023/12/03 14:13:45;;;;;;;;;;;18.10;59.40;;;;;;10225176;28;93783;-48
2023/12/03 14:18:47;;;;;;;;;;;18.10;59.30;;;;;;10219972;28;94577;-48
2023/12/03 14:23:49;;;;;;;;;;;18.00;59.30;;;;;;10234836;28;95765;-47
2023/12/03 14:28:51;;;;;;;;;;;18.10;60.40;;;;;;10244255;28;97202;-48
2023/12/03 14:33:53;;;;;;;;;;;18.10;59.30;;;;;;10235330;28;94477;-51
2023/12/03 14:38:55;;;;;;;;;;;18.10;59.10;;;;;;10228173;28;93698;-51
2023/12/03 14:43:57;;;;;;;;;;;18.00;58.90;;;;;;10232531;28;93839;-50
2023/12/03 14:49:00;;;;;;;;;;;18.00;59.00;;;;;;10229777;28;94799;-51
2023/12/03 14:54:03;;;;;;;;;;;18.00;58.90;;;;;;10233554;28;93519;-49
2023/12/03 14:59:06;;;;;;;;;;;18.00;58.80;;;;;;10238177;28;94848;-50
2023/12/03 15:04:08;;;;;;;;;;;18.00;59.40;;;;;;10232936;28;93805;-46
2023/12/03 15:09:10;;;;;;;;;;;18.10;59.50;;;;;;10230867;28;94473;-50
2023/12/03 15:14:11;;;;;;;;;;;18.00;59.30;;;;;;10237761;28;94790;-47
2023/12/03 15:19:13;;;;;;;;;;;18.00;59.20;;;;;;10235731;28;97454;-47
2023/12/03 15:24:15;;;;;;;;;;;18.20;59.00;;;;;;10245650;28;94032;-47
2023/12/03 15:29:17;;;;;;;;;;;18.30;58.90;;;;;;10237269;28;93464;-44
2023/12/03 15:34:18;;;;;;;;;;;18.50;58.50;;;;;;10239409;28;94503;-46
2023/12/03 15:39:21;;;;;;;;;;;18.60;58.10;;;;;;10223700;28;94194;-46
2023/12/03 15:44:25;;;;;;;;;;;18.70;57.80;;;;;;10236136;28;94078;-47
2023/12/03 15:49:27;;;;;;;;;;;18.70;57.70;;;;;;10230034;28;94236;-50
2023/12/03 15:54:30;;;;;;;;;;;18.60;57.70;;;;;;10251678;28;92708;-44
2023/12/03 15:59:32;;;;;;;;;;;18.60;57.80;;;;;;10226519;28;94335;-46
2023/12/03 16:04:34;;;;;;;;;;;18.60;57.30;;;;;;10234305;28;94110;-47
2023/12/03 16:09:39;;;;;;;;;;;18.70;57.00;;;;;;10231348;28;96896;-49
2023/12/03 16:14:41;;;;;;;;;;;18.80;56.50;;;;;;10234630;28;95014;-51
2023/12/03 16:19:42;;;;;;;;;;;18.90;56.20;;;;;;10231640;28;94481;-50
2023/12/03 16:24:44;;;;;;;;;;;18.90;55.90;;;;;;10239651;28;94826;-49
2023/12/03 16:29:46;;;;;;;;;;;18.90;55.80;;;;;;10243166;28;94550;-47
2023/12/03 16:34:48;;;;;;;;;;;18.80;55.80;;;;;;10239915;28;93524;-50
2023/12/03 16:39:50;;;;;;;;;;;18.90;55.80;;;;;;10237884;28;93635;-51
2023/12/03 16:44:53;;;;;;;;;;;18.90;55.80;;;;;;10233354;28;92881;-51
2023/12/03 16:49:55;;;;;;;;;;;18.90;55.50;;;;;;10241418;28;93441;-48
2023/12/03 16:54:57;;;;;;;;;;;18.90;55.40;;;;;;10223832;28;93816;-48
2023/12/03 16:59:59;;;;;;;;;;;18.80;55.60;;;;;;10216848;28;95856;-49
2023/12/03 17:05:00;;;;;;;;;;;18.80;57.70;;;;;;10236588;28;93528;-53
2023/12/03 17:10:03;;;;;;;;;;;18.90;58.30;;;;;;10222061;28;93988;-52
2023/12/03 17:15:05;;;;;;;;;;;19.00;60.10;;;;;;10230500;28;94912;-52
2023/12/03 17:20:09;;;;;;;;;;;19.10;62.00;;;;;;10236785;28;94647;-52
2023/12/03 17:25:12;;;;;;;;;;;19.20;59.60;;;;;;10222708;28;94547;-50
2023/12/03 17:30:15;;;;;;;;;;;19.10;60.50;;;;;;10233153;28;96082;-53
2023/12/03 17:35:17;;;;;;;;;;;19.00;60.40;;;;;;10229212;28;93854;-53
2023/12/03 17:40:21;;;;;;;;;;;18.90;59.60;;;;;;10231294;28;93589;-53
2023/12/03 17:45:27;;;;;;;;;;;19.00;60.50;;;;;;10224568;28;94130;-52
2023/12/03 17:50:31;;;;;;;;;;;19.00;60.80;;;;;;10225193;28;95891;-52
2023/12/03 17:55:33;;;;;;;;;;;19.00;60.80;;;;;;10235938;28;94449;-53
2023/12/03 18:00:35;;;;;;;;;;;18.90;61.10;;;;;;10230963;28;94793;-49
2023/12/03 18:05:37;;;;;;;;;;;18.90;61.50;;;;;;10227909;28;95333;-49
2023/12/03 18:10:38;;;;;;;;;;;18.90;61.80;;;;;;10233179;28;93049;-51
2023/12/03 18:15:40;;;;;;;;;;;18.90;62.80;;;;;;10226931;28;94719;-51
2023/12/03 18:20:42;;;;;;;;;;;19.00;63.00;;;;;;10229603;28;94884;-47
2023/12/03 18:25:44;;;;;;;;;;;18.90;62.60;;;;;;10231587;28;93072;-45
2023/12/03 18:30:47;;;;;;;;;;;18.90;62.30;;;;;;10224124;28;94472;-45
2023/12/03 18:35:51;;;;;;;;;;;18.90;62.00;;;;;;10212657;28;94126;-45
2023/12/03 18:40:53;;;;;;;;;;;18.90;61.50;;;;;;10229181;28;96866;-47
2023/12/03 18:45:57;;;;;;;;;;;18.90;61.20;;;;;;10232506;28;94492;-46
2023/12/03 18:51:01;;;;;;;;;;;18.90;60.90;;;;;;10238556;28;94009;-49
2023/12/03 18:56:06;;;;;;;;;;;18.80;60.50;;;;;;10220881;28;93549;-46
2023/12/03 19:01:08;;;;;;;;;;;18.90;60.30;;;;;;10225057;28;94109;-46
2023/12/03 19:06:10;;;;;;;;;;;18.90;59.90;;;;;;10224160;28;94555;-44
2023/12/03 19:11:12;;;;;;;;;;;18.90;59.50;;;;;;10224523;28;93353;-45
2023/12/03 19:16:14;;;;;;;;;;;18.90;59.30;;;;;;10241355;28;93067;-45
2023/12/03 19:21:18;;;;;;;;;;;18.90;59.40;;;;;;10221659;28;94562;-45
2023/12/03 19:26:20;;;;;;;;;;;18.90;59.20;;;;;;10226739;28;94493;-45
2023/12/03 19:31:22;;;;;;;;;;;19.00;59.00;;;;;;10225662;28;95705;-48
2023/12/03 19:36:24;;;;;;;;;;;19.10;58.50;;;;;;10229455;28;94584;-46
2023/12/03 19:41:26;;;;;;;;;;;19.20;58.20;;;;;;10242388;28;94616;-47
2023/12/03 19:46:28;;;;;;;;;;;19.10;58.00;;;;;;10246648;28;93485;-45
2023/12/03 19:51:33;;;;;;;;;;;19.10;58.00;;;;;;10236536;28;94295;-46
2023/12/03 19:56:34;;;;;;;;;;;19.00;58.10;;;;;;10245047;28;94105;-45
2023/12/03 20:01:36;;;;;;;;;;;19.00;58.10;;;;;;10243943;28;94493;-45
2023/12/03 20:06:38;;;;;;;;;;;18.90;58.30;;;;;;10223795;28;93393;-46
2023/12/03 20:11:40;;;;;;;;;;;18.90;58.50;;;;;;10230248;28;93433;-48
2023/12/03 20:16:42;;;;;;;;;;;18.90;58.60;;;;;;10233342;28;93395;-45
2023/12/03 20:21:44;;;;;;;;;;;18.90;58.60;;;;;;10217498;28;95837;-46
2023/12/03 20:26:46;;;;;;;;;;;18.90;58.60;;;;;;10218768;28;94028;-48
2023/12/03 20:31:47;;;;;;;;;;;18.80;58.40;;;;;;10229382;28;94134;-46
2023/12/03 20:36:49;;;;;;;;;;;18.80;58.70;;;;;;10230937;28;94449;-46
2023/12/03 20:41:51;;;;;;;;;;;18.80;58.70;;;;;;10234222;28;94392;-49
2023/12/03 20:46:53;;;;;;;;;;;18.80;58.80;;;;;;10220090;28;94821;-49
2023/12/03 20:51:56;;;;;;;;;;;18.70;58.80;;;;;;10226784;28;94519;-49
2023/12/03 20:56:58;;;;;;;;;;;18.70;58.90;;;;;;10243985;28;93136;-48
2023/12/03 21:02:01;;;;;;;;;;;18.60;58.90;;;;;;10239821;28;94818;-50
2023/12/03 21:07:03;;;;;;;;;;;18.50;59.10;;;;;;10228743;28;93642;-46
2023/12/03 21:12:04;;;;;;;;;;;18.40;59.20;;;;;;10238914;28;96130;-47
2023/12/03 21:17:06;;;;;;;;;;;18.30;59.30;;;;;;10229207;28;94559;-46
2023/12/03 21:22:08;;;;;;;;;;;18.30;59.50;;;;;;10233008;28;93876;-46
2023/12/03 21:27:10;;;;;;;;;;;18.20;59.60;;;;;;10237638;28;94509;-46
2023/12/03 21:32:12;;;;;;;;;;;18.00;59.70;;;;;;10234633;28;93529;-48
2023/12/03 21:37:13;;;;;;;;;;;18.00;59.80;;;;;;10232961;28;94311;-45
2023/12/03 21:42:22;;;;;;;;;;;17.90;59.80;;;;;;10232752;28;94797;-48
2023/12/03 21:47:24;;;;;;;;;;;17.80;59.30;;;;;;10236172;28;93434;-47
2023/12/03 21:52:26;;;;;;;;;;;17.80;59.10;;;;;;10230924;28;93749;-48
2023/12/03 21:57:28;;;;;;;;;;;17.70;58.70;;;;;;10229878;28;93778;-47
2023/12/03 22:02:31;;;;;;;;;;;17.60;58.40;;;;;;10233228;28;95840;-46
2023/12/03 22:07:33;;;;;;;;;;;17.60;58.10;;;;;;10232199;28;93503;-45
2023/12/03 22:12:34;;;;;;;;;;;17.50;57.80;;;;;;10231030;28;93448;-47
2023/12/03 22:17:36;;;;;;;;;;;17.50;57.80;;;;;;10232738;28;93139;-48
2023/12/03 22:22:40;;;;;;;;;;;17.40;57.80;;;;;;10248559;28;114479;-45
2023/12/03 22:27:43;;;;;;;;;;;17.30;58.00;;;;;;10217441;28;93424;-45
2023/12/03 22:32:45;;;;;;;;;;;17.30;58.10;;;;;;10226003;28;93524;-47
2023/12/03 22:37:46;;;;;;;;;;;17.20;58.10;;;;;;10240183;28;92728;-45
2023/12/03 22:42:48;;;;;;;;;;;17.20;58.30;;;;;;10225833;28;94403;-46
2023/12/03 22:47:50;;;;;;;;;;;17.10;58.40;;;;;;10215122;28;95841;-49
2023/12/03 22:52:52;;;;;;;;;;;17.10;58.50;;;;;;10212000;28;95957;-49
2023/12/03 22:57:54;;;;;;;;;;;17.00;58.40;;;;;;10216843;28;93524;-47
2023/12/03 23:02:57;;;;;;;;;;;17.00;58.50;;;;;;10233040;28;94398;-44
2023/12/03 23:07:59;;;;;;;;;;;17.00;58.70;;;;;;10231827;28;94895;-44
2023/12/03 23:13:01;;;;;;;;;;;16.90;58.70;;;;;;10229931;28;93812;-48
2023/12/03 23:18:03;;;;;;;;;;;16.90;58.60;;;;;;10236986;28;93463;-45
2023/12/03 23:23:05;;;;;;;;;;;16.90;58.80;;;;;;10237854;28;94543;-48
2023/12/03 23:28:06;;;;;;;;;;;16.80;58.80;;;;;;10223139;28;93689;-45
2023/12/03 23:33:08;;;;;;;;;;;16.80;58.70;;;;;;10229706;28;94547;-46
2023/12/03 23:38:10;;;;;;;;;;;16.70;58.70;;;;;;10239774;28;93665;-44
2023/12/03 23:43:12;;;;;;;;;;;16.70;58.80;;;;;;10242494;28;96187;-46
2023/12/03 23:48:14;;;;;;;;;;;16.60;58.70;;;;;;10244342;28;95252;-45
2023/12/03 23:53:16;;;;;;;;;;;16.60;58.90;;;;;;10244335;28;94313;-45
2023/12/03 23:58:18;;;;;;;;;;;16.60;58.80;;;;;;10244399;28;93576;-47
